EHBK/MST METAR and TAF weather

Enter ICAO airport designator
Station Type Date Time Source
EHBK METAR 2019/04/18 20:25 UTC NOAA

EHBK 182025Z AUTO 07007KT 9999 NCD 13/04 Q1024 NOSIG


Station Type Date Time Source
EHBK Decoded METAR 2019/04/18 20:25 UTC NOAA

Maastricht Airport Zuid Limburg, Netherlands (EHBK) 50-55N 005-47E 116M
Apr 18, 2019 - 04:25 PM EDT / 2019.04.18 2025 UTC
Wind: from the ENE (070 degrees) at 8 MPH (7 KT):0
Visibility: greater than 7 mile(s):0
Temperature: 55 F (13 C)
Dew Point: 39 F (4 C)
Relative Humidity: 54%
Pressure (altimeter): 30.24 in. Hg (1024 hPa)
ob: EHBK 182025Z AUTO 07007KT 9999 NCD 13/04 Q1024 NOSIG
cycle: 20

Station Type Date Time Source
EHBK TAF 2019/04/18 18:27 UTC NOAA

TAF EHBK 181649Z 1818/1924 09008KT CAVOK

Example: see airport list